createdAt,value
2023-03-17T00:00:10.182Z,58.77
2023-03-17T00:00:22.353Z,58.52
2023-03-17T00:00:35.076Z,58.56
2023-03-17T00:00:48.698Z,58.84
2023-03-17T00:01:03.187Z,58.21
2023-03-17T00:01:16.462Z,58.33
2023-03-17T00:01:28.432Z,58.60
2023-03-17T00:01:40.940Z,58.48
2023-03-17T00:01:55.041Z,58.27
2023-03-17T00:02:08.533Z,58.31
2023-03-17T00:02:22.381Z,58.31
2023-03-17T00:02:34.499Z,58.80
2023-03-17T00:02:48.943Z,58.84
2023-03-17T00:03:01.304Z,58.33
2023-03-17T00:03:23.397Z,58.54
2023-03-17T00:03:41.469Z,58.62
2023-03-17T00:03:53.458Z,58.58
2023-03-17T00:04:05.899Z,59.03
2023-03-17T00:04:19.327Z,58.51
2023-03-17T00:04:31.607Z,59.01
2023-03-17T00:04:43.706Z,58.56
2023-03-17T00:04:55.890Z,58.92
2023-03-17T00:05:24.451Z,58.80
2023-03-17T00:05:36.768Z,58.74
2023-03-17T00:05:49.405Z,58.75
2023-03-17T00:06:01.811Z,59.09
2023-03-17T00:06:27.820Z,58.94
2023-03-17T00:06:41.213Z,58.62
2023-03-17T00:06:54.400Z,58.74
2023-03-17T00:07:06.410Z,58.99
2023-03-17T00:07:18.374Z,58.89
2023-03-17T00:07:33.221Z,58.99
2023-03-17T00:07:46.404Z,58.90
2023-03-17T00:08:04.103Z,59.01
2023-03-17T00:08:24.243Z,58.79
2023-03-17T00:08:36.502Z,58.80
2023-03-17T00:08:48.427Z,58.58
2023-03-17T00:09:00.575Z,58.39
2023-03-17T00:09:14.754Z,58.64
2023-03-17T00:09:27.007Z,58.76
2023-03-17T00:09:38.996Z,58.49
2023-03-17T00:09:51.235Z,58.81
2023-03-17T00:10:03.229Z,59.04
2023-03-17T00:10:22.196Z,59.17
2023-03-17T00:10:34.230Z,59.20
2023-03-17T00:10:46.174Z,59.45
2023-03-17T00:10:58.216Z,59.33
2023-03-17T00:11:15.077Z,58.60
2023-03-17T00:11:28.239Z,58.36
2023-03-17T00:11:40.985Z,58.56
2023-03-17T00:11:53.341Z,58.62
2023-03-17T00:12:10.561Z,58.43
2023-03-17T00:12:22.539Z,58.91
2023-03-17T00:12:34.467Z,58.08
2023-03-17T00:12:46.800Z,58.41
2023-03-17T00:12:58.693Z,58.80
2023-03-17T00:13:14.237Z,59.14
2023-03-17T00:13:27.368Z,59.09
2023-03-17T00:13:39.268Z,58.99
2023-03-17T00:13:51.464Z,58.61
2023-03-17T00:14:04.051Z,59.01
2023-03-17T00:14:16.718Z,58.69
2023-03-17T00:14:28.824Z,58.82
2023-03-17T00:14:41.673Z,59.04
2023-03-17T00:14:53.611Z,58.68
2023-03-17T00:15:06.162Z,59.03
2023-03-17T00:15:18.092Z,58.42
2023-03-17T00:15:30.598Z,58.38
2023-03-17T00:15:44.339Z,58.42
2023-03-17T00:16:01.552Z,58.35
2023-03-17T00:16:19.088Z,58.39
2023-03-17T00:16:37.269Z,57.87
2023-03-17T00:16:51.433Z,58.96
2023-03-17T00:17:03.533Z,58.72
2023-03-17T00:17:15.490Z,58.85
2023-03-17T00:17:27.570Z,59.15
2023-03-17T00:17:39.841Z,58.91
2023-03-17T00:17:51.741Z,58.99
2023-03-17T00:18:03.806Z,58.70
2023-03-17T00:18:17.906Z,58.70
2023-03-17T00:18:31.576Z,58.99
2023-03-17T00:18:44.578Z,58.75
2023-03-17T00:18:57.510Z,59.16
2023-03-17T00:19:36.233Z,59.09
2023-03-17T00:19:48.257Z,58.44
2023-03-17T00:20:00.286Z,58.97
2023-03-17T00:20:24.473Z,58.68
2023-03-17T00:20:36.534Z,58.34
2023-03-17T00:20:48.531Z,58.52
2023-03-17T00:21:03.050Z,58.86
2023-03-17T00:21:17.842Z,58.66
2023-03-17T00:21:32.233Z,58.81
2023-03-17T00:21:46.970Z,58.93
2023-03-17T00:22:00.782Z,58.81
2023-03-17T00:22:18.478Z,58.86
2023-03-17T00:22:30.551Z,59.11
2023-03-17T00:22:42.532Z,59.57
2023-03-17T00:22:57.403Z,59.07
2023-03-17T00:23:16.191Z,59.23
2023-03-17T00:23:28.389Z,58.81
2023-03-17T00:23:40.940Z,58.96
2023-03-17T00:23:53.057Z,58.79
2023-03-17T00:24:06.371Z,58.93
2023-03-17T00:24:18.342Z,58.84
2023-03-17T00:24:30.291Z,58.89
2023-03-17T00:24:42.633Z,58.38
2023-03-17T00:24:54.605Z,58.71
2023-03-17T00:25:30.710Z,59.05
2023-03-17T00:25:43.555Z,58.86
2023-03-17T00:25:57.250Z,58.86
2023-03-17T00:26:10.434Z,58.96
2023-03-17T00:26:23.159Z,59.02
2023-03-17T00:26:35.086Z,59.25
2023-03-17T00:26:47.161Z,59.26
2023-03-17T00:26:59.614Z,59.22
2023-03-17T00:27:13.292Z,59.16
2023-03-17T00:27:25.213Z,59.17
2023-03-17T00:27:37.102Z,59.23
2023-03-17T00:27:49.604Z,58.96
2023-03-17T00:28:04.695Z,58.83
2023-03-17T00:28:20.927Z,59.58
2023-03-17T00:28:33.533Z,59.19
2023-03-17T00:28:45.520Z,59.43
2023-03-17T00:28:57.857Z,58.97
2023-03-17T00:29:10.098Z,59.45
2023-03-17T00:29:22.084Z,59.19
2023-03-17T00:29:34.145Z,59.23
2023-03-17T00:29:46.919Z,58.88
2023-03-17T00:29:58.930Z,58.82
2023-03-17T00:30:11.757Z,58.57
2023-03-17T00:30:24.596Z,58.61
2023-03-17T00:30:36.571Z,58.77
2023-03-17T00:30:52.623Z,58.82
2023-03-17T00:31:13.625Z,58.54
2023-03-17T00:31:29.491Z,59.36
2023-03-17T00:31:45.005Z,59.34
2023-03-17T00:31:57.708Z,59.25
2023-03-17T00:32:20.281Z,59.09
2023-03-17T00:32:33.050Z,59.29
2023-03-17T00:32:48.219Z,58.63
2023-03-17T00:33:00.185Z,58.86
2023-03-17T00:33:12.492Z,58.89
2023-03-17T00:33:27.011Z,59.02
2023-03-17T00:33:39.900Z,58.71
2023-03-17T00:33:54.174Z,58.64
2023-03-17T00:34:07.823Z,59.34
2023-03-17T00:34:19.876Z,58.93
2023-03-17T00:34:31.852Z,58.73
2023-03-17T00:34:44.610Z,58.55
2023-03-17T00:34:56.546Z,58.87
2023-03-17T00:35:17.186Z,58.88
2023-03-17T00:35:30.140Z,58.67
2023-03-17T00:35:44.128Z,58.81
2023-03-17T00:35:57.313Z,58.94
2023-03-17T00:36:17.968Z,58.66
2023-03-17T00:36:32.757Z,58.63
2023-03-17T00:36:48.198Z,58.79
2023-03-17T00:37:01.853Z,58.49
2023-03-17T00:37:13.948Z,58.67
2023-03-17T00:37:26.044Z,58.77
2023-03-17T00:37:37.973Z,58.66
2023-03-17T00:37:52.553Z,58.48
2023-03-17T00:38:05.269Z,58.34
2023-03-17T00:38:19.227Z,58.99
2023-03-17T00:38:31.480Z,58.59
2023-03-17T00:38:43.717Z,58.96
2023-03-17T00:38:55.838Z,58.58
2023-03-17T00:39:25.469Z,58.44
2023-03-17T00:39:37.468Z,58.79
2023-03-17T00:39:49.345Z,58.19
2023-03-17T00:40:01.509Z,58.64
2023-03-17T00:40:24.459Z,58.86
2023-03-17T00:40:36.659Z,58.93
2023-03-17T00:40:48.978Z,58.70
2023-03-17T00:41:01.445Z,58.70
2023-03-17T00:41:13.899Z,58.88
2023-03-17T00:41:27.069Z,58.76
2023-03-17T00:41:42.098Z,58.51
2023-03-17T00:41:54.044Z,58.39
2023-03-17T00:42:07.051Z,58.38
2023-03-17T00:42:19.030Z,58.63
2023-03-17T00:42:31.041Z,58.76
2023-03-17T00:42:43.552Z,58.92
2023-03-17T00:42:55.759Z,59.02
2023-03-17T00:43:08.454Z,58.86
2023-03-17T00:43:20.609Z,58.57
2023-03-17T00:43:32.542Z,58.37
2023-03-17T00:43:44.867Z,58.37
2023-03-17T00:43:57.646Z,58.54
2023-03-17T00:44:09.800Z,58.71
2023-03-17T00:44:21.743Z,58.54
2023-03-17T00:44:34.555Z,58.62
2023-03-17T00:44:47.225Z,58.74
2023-03-17T00:44:59.326Z,58.37
2023-03-17T00:45:11.407Z,58.45
2023-03-17T00:45:25.157Z,58.67
2023-03-17T00:45:37.661Z,58.52
2023-03-17T00:45:51.091Z,58.52
2023-03-17T00:46:11.604Z,58.50
2023-03-17T00:46:35.889Z,58.58
2023-03-17T00:46:48.385Z,58.41
2023-03-17T00:47:01.553Z,58.48
2023-03-17T00:47:13.696Z,57.77
2023-03-17T00:47:25.664Z,58.18
2023-03-17T00:47:38.386Z,58.49
2023-03-17T00:47:51.969Z,58.21
2023-03-17T00:48:05.805Z,58.07
2023-03-17T00:48:21.121Z,58.09
2023-03-17T00:48:33.181Z,58.41
2023-03-17T00:48:45.870Z,58.15
2023-03-17T00:48:57.941Z,57.81
2023-03-17T00:49:21.497Z,57.65
2023-03-17T00:49:35.770Z,57.55
2023-03-17T00:49:48.279Z,57.59
2023-03-17T00:50:00.269Z,57.83
2023-03-17T00:50:16.046Z,57.88
2023-03-17T00:50:29.308Z,57.69
2023-03-17T00:50:42.535Z,57.95
2023-03-17T00:50:54.509Z,58.14
2023-03-17T00:51:07.091Z,58.10
2023-03-17T00:51:19.028Z,57.99
2023-03-17T00:51:33.819Z,58.01
2023-03-17T00:51:46.888Z,57.89
2023-03-17T00:52:01.565Z,57.77
2023-03-17T00:52:13.942Z,57.70
2023-03-17T00:52:26.976Z,57.84
2023-03-17T00:52:38.994Z,57.83
2023-03-17T00:52:52.816Z,57.72
2023-03-17T00:53:10.662Z,57.73
2023-03-17T00:53:22.622Z,57.72
2023-03-17T00:53:34.949Z,57.68
2023-03-17T00:53:46.988Z,57.83
2023-03-17T00:53:58.927Z,57.78
2023-03-17T00:54:11.434Z,57.84
2023-03-17T00:54:23.460Z,57.71
2023-03-17T00:54:35.400Z,57.71
2023-03-17T00:54:47.355Z,58.17
2023-03-17T00:54:59.273Z,57.96
2023-03-17T00:55:12.818Z,57.66
2023-03-17T00:55:26.604Z,57.80
2023-03-17T00:55:38.614Z,57.57
2023-03-17T00:55:50.511Z,57.32
2023-03-17T00:56:02.750Z,57.03
2023-03-17T00:56:20.643Z,58.20
2023-03-17T00:56:32.997Z,57.84
2023-03-17T00:56:46.016Z,57.97
2023-03-17T00:56:58.409Z,57.50
2023-03-17T00:57:11.050Z,57.38
2023-03-17T00:57:23.631Z,56.96
2023-03-17T00:57:38.483Z,56.97
2023-03-17T00:57:50.686Z,57.18
2023-03-17T00:58:10.620Z,56.89
2023-03-17T00:58:27.191Z,56.83
2023-03-17T00:58:40.042Z,56.83
2023-03-17T00:58:52.537Z,57.65
2023-03-17T00:59:05.492Z,57.55
2023-03-17T00:59:26.261Z,57.45
2023-03-17T00:59:42.161Z,57.32
2023-03-17T00:59:54.233Z,57.68
2023-03-17T01:00:17.226Z,58.47
2023-03-17T01:00:30.170Z,58.21
2023-03-17T01:00:42.414Z,58.52
2023-03-17T01:00:55.534Z,58.85
2023-03-17T01:01:08.677Z,58.76
2023-03-17T01:01:20.790Z,58.53
2023-03-17T01:01:32.779Z,58.90
2023-03-17T01:01:44.759Z,59.15
2023-03-17T01:01:57.023Z,58.85
2023-03-17T01:02:13.032Z,58.80
2023-03-17T01:02:25.709Z,58.93
2023-03-17T01:02:37.789Z,58.90
2023-03-17T01:02:50.588Z,58.86
2023-03-17T01:03:02.664Z,58.92
2023-03-17T01:03:15.422Z,58.88
2023-03-17T01:03:28.385Z,59.47
2023-03-17T01:03:41.439Z,59.27
2023-03-17T01:03:53.469Z,59.55
2023-03-17T01:04:05.401Z,59.83
2023-03-17T01:04:18.058Z,59.68
2023-03-17T01:04:30.044Z,59.58
2023-03-17T01:04:47.565Z,59.54
2023-03-17T01:05:06.636Z,59.34
2023-03-17T01:05:19.234Z,59.28
2023-03-17T01:05:31.267Z,59.17
2023-03-17T01:05:43.399Z,59.26
2023-03-17T01:05:59.501Z,59.64
2023-03-17T01:06:13.782Z,60.08
2023-03-17T01:06:29.020Z,60.38
2023-03-17T01:06:42.043Z,60.34
2023-03-17T01:06:54.435Z,59.71
2023-03-17T01:07:11.074Z,59.74
2023-03-17T01:07:24.201Z,60.22
2023-03-17T01:07:37.227Z,60.47
2023-03-17T01:07:54.619Z,59.86
2023-03-17T01:08:07.754Z,60.20
2023-03-17T01:08:21.508Z,60.01
2023-03-17T01:08:33.877Z,60.53
2023-03-17T01:08:46.533Z,60.33
2023-03-17T01:09:01.627Z,60.47
2023-03-17T01:09:16.055Z,60.75
2023-03-17T01:09:28.451Z,60.14
2023-03-17T01:09:41.351Z,60.85
2023-03-17T01:09:53.287Z,60.82
2023-03-17T01:10:14.142Z,61.34
2023-03-17T01:10:28.781Z,61.08
2023-03-17T01:10:42.636Z,60.86
2023-03-17T01:10:54.755Z,60.59
2023-03-17T01:11:07.289Z,60.45
2023-03-17T01:11:20.329Z,60.05
2023-03-17T01:11:32.293Z,60.68
2023-03-17T01:11:44.543Z,60.48
2023-03-17T01:11:56.590Z,60.79
2023-03-17T01:12:12.807Z,60.92
2023-03-17T01:12:26.272Z,61.10
2023-03-17T01:12:38.167Z,60.89
2023-03-17T01:12:51.121Z,60.55
2023-03-17T01:13:04.275Z,60.63
2023-03-17T01:13:16.284Z,60.79
2023-03-17T01:13:29.184Z,60.57
2023-03-17T01:13:41.601Z,61.12
2023-03-17T01:13:53.782Z,60.68
2023-03-17T01:14:05.781Z,60.74
2023-03-17T01:14:17.803Z,60.44
2023-03-17T01:14:29.746Z,60.76
2023-03-17T01:14:41.832Z,60.71
2023-03-17T01:14:53.820Z,60.42
2023-03-17T01:15:06.087Z,60.08
2023-03-17T01:15:19.826Z,60.32
2023-03-17T01:15:32.680Z,60.66
2023-03-17T01:15:47.248Z,60.91
2023-03-17T01:15:59.335Z,61.33
2023-03-17T01:16:12.370Z,60.67
2023-03-17T01:16:24.503Z,60.81
2023-03-17T01:16:36.475Z,60.87
2023-03-17T01:16:48.570Z,60.81
2023-03-17T01:17:00.823Z,60.54
2023-03-17T01:17:16.820Z,60.72
2023-03-17T01:17:28.973Z,60.79
2023-03-17T01:17:41.705Z,60.47
2023-03-17T01:17:53.633Z,60.63
2023-03-17T01:18:05.636Z,60.58
2023-03-17T01:18:21.564Z,60.31
2023-03-17T01:18:34.246Z,60.65
2023-03-17T01:18:46.310Z,60.67
2023-03-17T01:18:58.482Z,60.21
2023-03-17T01:19:13.798Z,60.45
2023-03-17T01:19:25.747Z,60.73
2023-03-17T01:19:37.789Z,61.09
2023-03-17T01:19:50.014Z,60.87
2023-03-17T01:20:02.828Z,61.05
2023-03-17T01:20:21.606Z,61.42
2023-03-17T01:20:34.472Z,61.28
2023-03-17T01:20:47.024Z,61.09
2023-03-17T01:20:59.064Z,61.66
2023-03-17T01:21:11.215Z,61.66
2023-03-17T01:21:23.748Z,61.29
2023-03-17T01:21:35.702Z,61.64
2023-03-17T01:21:48.010Z,61.37
2023-03-17T01:21:59.975Z,60.84
2023-03-17T01:22:12.082Z,60.97
2023-03-17T01:22:26.646Z,61.18
2023-03-17T01:22:38.616Z,60.40
2023-03-17T01:22:51.504Z,60.60
2023-03-17T01:23:04.106Z,61.15
2023-03-17T01:23:17.651Z,60.75
2023-03-17T01:23:29.555Z,60.69
2023-03-17T01:23:42.205Z,60.72
2023-03-17T01:23:54.967Z,60.82
2023-03-17T01:24:08.167Z,60.81
2023-03-17T01:24:20.130Z,60.45
2023-03-17T01:24:33.136Z,61.29
2023-03-17T01:24:47.374Z,61.34
2023-03-17T01:24:59.318Z,61.36
2023-03-17T01:25:12.133Z,61.16
2023-03-17T01:25:24.551Z,61.36
2023-03-17T01:25:38.167Z,61.22
2023-03-17T01:25:50.302Z,61.21
2023-03-17T01:26:02.222Z,61.20
2023-03-17T01:26:14.145Z,61.66
2023-03-17T01:26:26.216Z,61.00
2023-03-17T01:26:39.015Z,61.60
2023-03-17T01:26:51.005Z,61.29
2023-03-17T01:27:04.893Z,61.54
2023-03-17T01:27:19.091Z,61.07
2023-03-17T01:27:36.407Z,61.52
2023-03-17T01:27:48.544Z,61.14
2023-03-17T01:28:00.501Z,61.41
2023-03-17T01:28:17.922Z,61.59
2023-03-17T01:28:29.916Z,61.02
2023-03-17T01:28:42.268Z,61.25
2023-03-17T01:28:54.721Z,61.24
2023-03-17T01:29:07.892Z,61.51
2023-03-17T01:29:19.920Z,60.75
2023-03-17T01:29:32.128Z,61.35
2023-03-17T01:29:44.772Z,60.97
2023-03-17T01:29:56.817Z,61.13
2023-03-17T01:30:19.555Z,61.29
2023-03-17T01:30:40.031Z,61.51
2023-03-17T01:30:52.218Z,61.34
2023-03-17T01:31:05.000Z,60.96
2023-03-17T01:31:17.279Z,60.88
2023-03-17T01:31:29.464Z,61.32
2023-03-17T01:31:41.502Z,62.01
2023-03-17T01:31:53.678Z,61.54
2023-03-17T01:32:06.324Z,61.23
2023-03-17T01:32:18.215Z,61.11
2023-03-17T01:32:30.259Z,61.27
2023-03-17T01:32:42.553Z,61.03
2023-03-17T01:32:56.224Z,61.49
2023-03-17T01:33:10.710Z,61.56
2023-03-17T01:33:22.718Z,61.12
2023-03-17T01:33:35.150Z,61.27
2023-03-17T01:33:47.413Z,60.84
2023-03-17T01:33:59.794Z,60.87
2023-03-17T01:34:12.542Z,61.18
2023-03-17T01:34:24.787Z,60.94
2023-03-17T01:34:36.757Z,61.26
2023-03-17T01:34:48.687Z,61.39
2023-03-17T01:35:00.628Z,60.96
2023-03-17T01:35:13.343Z,60.82
2023-03-17T01:35:27.111Z,60.52
2023-03-17T01:35:39.655Z,60.61
2023-03-17T01:35:52.192Z,60.22
2023-03-17T01:36:04.349Z,60.38
2023-03-17T01:36:16.272Z,60.79
2023-03-17T01:36:28.176Z,60.92
2023-03-17T01:36:43.186Z,60.83
2023-03-17T01:36:55.235Z,60.29
2023-03-17T01:37:08.244Z,60.57
2023-03-17T01:37:24.058Z,60.62
2023-03-17T01:37:36.392Z,60.31
2023-03-17T01:37:50.001Z,60.42
2023-03-17T01:38:03.403Z,60.25
2023-03-17T01:38:15.554Z,59.92
2023-03-17T01:38:27.479Z,60.34
2023-03-17T01:38:39.483Z,60.50
2023-03-17T01:38:51.540Z,59.99
2023-03-17T01:39:05.409Z,60.01
2023-03-17T01:39:17.817Z,59.98
2023-03-17T01:39:29.763Z,59.88
2023-03-17T01:39:41.965Z,60.19
2023-03-17T01:39:54.114Z,60.13
2023-03-17T01:40:07.602Z,60.30
2023-03-17T01:40:23.178Z,60.27
2023-03-17T01:40:38.859Z,60.14
2023-03-17T01:40:51.935Z,60.06
2023-03-17T01:41:03.961Z,60.10
2023-03-17T01:41:15.971Z,59.91
2023-03-17T01:41:27.905Z,59.70
2023-03-17T01:41:40.287Z,59.81
2023-03-17T01:41:56.717Z,59.66
2023-03-17T01:42:08.869Z,60.14
2023-03-17T01:42:20.931Z,60.12
2023-03-17T01:42:33.289Z,59.97
2023-03-17T01:42:52.544Z,59.94
2023-03-17T01:43:10.140Z,60.04
2023-03-17T01:43:25.861Z,60.51
2023-03-17T01:43:38.419Z,60.19
2023-03-17T01:43:50.379Z,60.08
2023-03-17T01:44:02.901Z,60.29
2023-03-17T01:44:18.304Z,60.27
2023-03-17T01:44:30.708Z,59.79
2023-03-17T01:45:00.689Z,60.31
2023-03-17T01:45:50.020Z,60.34
2023-03-17T01:46:25.160Z,60.51
2023-03-17T01:46:37.537Z,60.60
2023-03-17T01:46:49.544Z,60.58
2023-03-17T01:47:01.597Z,60.55
2023-03-17T01:47:16.500Z,60.55
2023-03-17T01:47:31.893Z,60.03
2023-03-17T01:47:44.541Z,60.53
2023-03-17T01:47:56.849Z,60.70
2023-03-17T01:48:09.089Z,60.27
2023-03-17T01:48:22.774Z,60.45
2023-03-17T01:48:38.854Z,60.74
2023-03-17T01:49:05.907Z,61.33
2023-03-17T01:49:38.092Z,60.78
2023-03-17T01:49:50.290Z,61.43
2023-03-17T01:50:09.883Z,61.05
2023-03-17T01:50:22.018Z,60.99
2023-03-17T01:50:33.981Z,61.26
2023-03-17T01:50:46.929Z,60.78
2023-03-17T01:50:58.876Z,61.04
2023-03-17T01:51:18.338Z,60.84
2023-03-17T01:51:36.305Z,61.21
2023-03-17T01:52:15.107Z,61.01
2023-03-17T01:52:28.791Z,61.24
2023-03-17T01:52:41.532Z,61.42
2023-03-17T01:52:53.707Z,61.46
2023-03-17T01:53:06.112Z,61.69
2023-03-17T01:53:20.330Z,61.78
2023-03-17T01:53:35.787Z,61.44
2023-03-17T01:53:51.034Z,61.36
2023-03-17T01:54:08.426Z,61.50
2023-03-17T01:54:32.682Z,61.26
2023-03-17T01:54:46.297Z,61.50
2023-03-17T01:55:03.542Z,61.71
2023-03-17T01:55:17.923Z,61.65
2023-03-17T01:55:30.289Z,61.26
2023-03-17T01:55:45.815Z,61.83
2023-03-17T01:55:57.915Z,62.21
2023-03-17T01:56:09.789Z,62.15
2023-03-17T01:56:22.164Z,61.94
2023-03-17T01:56:36.302Z,61.98
2023-03-17T01:56:52.212Z,61.75
2023-03-17T01:57:17.223Z,61.84
2023-03-17T01:57:37.175Z,62.12
2023-03-17T01:57:54.228Z,62.11
2023-03-17T01:58:07.001Z,61.85
2023-03-17T01:58:22.890Z,62.65
2023-03-17T01:58:35.362Z,62.62
2023-03-17T01:58:52.399Z,62.52
2023-03-17T01:59:07.790Z,62.31
2023-03-17T01:59:25.883Z,63.14
2023-03-17T01:59:45.412Z,62.74
2023-03-17T02:00:18.188Z,63.13
2023-03-17T02:00:33.373Z,62.74
2023-03-17T02:00:46.546Z,63.06
2023-03-17T02:00:58.906Z,62.98
2023-03-17T02:01:11.525Z,62.83
2023-03-17T02:01:28.979Z,63.23
2023-03-17T02:01:45.123Z,62.72
2023-03-17T02:02:04.922Z,63.37
2023-03-17T02:02:22.547Z,63.08
2023-03-17T02:02:38.271Z,63.83
2023-03-17T02:02:55.546Z,63.53
2023-03-17T02:03:07.516Z,63.45
2023-03-17T02:03:19.534Z,63.71
2023-03-17T02:03:31.824Z,63.27
2023-03-17T02:03:45.075Z,63.21
2023-03-17T02:03:58.455Z,63.51
2023-03-17T02:04:11.836Z,62.99
2023-03-17T02:04:26.727Z,62.97
2023-03-17T02:04:40.404Z,62.73
2023-03-17T02:04:53.129Z,62.79
2023-03-17T02:05:09.171Z,63.04
2023-03-17T02:05:25.926Z,62.78
2023-03-17T02:05:39.631Z,62.93
2023-03-17T02:05:54.023Z,63.10
2023-03-17T02:06:07.240Z,63.10
2023-03-17T02:06:19.291Z,63.10
2023-03-17T02:06:32.278Z,63.13
2023-03-17T02:06:57.594Z,63.01
2023-03-17T02:07:11.180Z,62.97
2023-03-17T02:07:27.493Z,62.70
2023-03-17T02:07:40.800Z,63.13
2023-03-17T02:07:54.363Z,62.85
2023-03-17T02:08:14.611Z,63.02
2023-03-17T02:08:27.271Z,62.84
2023-03-17T02:08:39.329Z,62.81
2023-03-17T02:08:53.961Z,62.93
2023-03-17T02:09:06.535Z,62.82
2023-03-17T02:09:18.560Z,62.53
2023-03-17T02:09:32.041Z,62.76
2023-03-17T02:09:44.620Z,63.08
2023-03-17T02:09:57.987Z,62.86
2023-03-17T02:10:12.546Z,62.73
2023-03-17T02:10:28.623Z,63.23
2023-03-17T02:10:42.346Z,62.98
2023-03-17T02:10:56.328Z,62.60
2023-03-17T02:11:09.611Z,62.57
2023-03-17T02:11:22.478Z,62.65
2023-03-17T02:11:34.921Z,62.99
2023-03-17T02:11:46.872Z,62.52
2023-03-17T02:12:01.341Z,62.65
2023-03-17T02:12:15.122Z,62.23
2023-03-17T02:12:30.215Z,62.58
2023-03-17T02:12:44.822Z,62.59
2023-03-17T02:13:00.154Z,62.64
2023-03-17T02:13:13.464Z,63.07
2023-03-17T02:13:25.630Z,62.49
2023-03-17T02:13:38.394Z,62.87
2023-03-17T02:13:50.383Z,62.40
2023-03-17T02:14:02.608Z,62.58
2023-03-17T02:14:14.726Z,62.35
2023-03-17T02:14:27.963Z,62.68
2023-03-17T02:14:39.908Z,63.10
2023-03-17T02:14:52.682Z,62.84
2023-03-17T02:15:05.868Z,62.81
2023-03-17T02:15:18.082Z,62.73
2023-03-17T02:15:46.133Z,63.07
2023-03-17T02:15:58.437Z,63.04
2023-03-17T02:16:17.339Z,63.24
2023-03-17T02:16:30.518Z,63.39
2023-03-17T02:16:47.542Z,63.02
2023-03-17T02:16:59.609Z,63.04
2023-03-17T02:17:11.620Z,62.48
2023-03-17T02:17:29.473Z,62.73
2023-03-17T02:17:41.448Z,62.89
2023-03-17T02:17:54.147Z,63.12
2023-03-17T02:18:06.801Z,62.86
2023-03-17T02:18:21.730Z,62.67
2023-03-17T02:18:34.098Z,62.79
2023-03-17T02:18:46.277Z,62.69
2023-03-17T02:18:58.350Z,62.98
2023-03-17T02:19:10.347Z,62.60
2023-03-17T02:19:22.289Z,62.72
2023-03-17T02:19:35.147Z,62.49
2023-03-17T02:19:47.142Z,62.60
2023-03-17T02:20:17.289Z,62.88
2023-03-17T02:20:29.666Z,63.22
2023-03-17T02:20:42.338Z,63.36
2023-03-17T02:20:54.401Z,62.34
2023-03-17T02:21:36.870Z,62.84
2023-03-17T02:21:58.029Z,62.91
2023-03-17T02:22:10.690Z,62.91
2023-03-17T02:22:24.000Z,62.80
2023-03-17T02:22:39.090Z,62.34
2023-03-17T02:22:53.714Z,62.65
2023-03-17T02:23:07.309Z,62.44
2023-03-17T02:23:25.577Z,62.24
2023-03-17T02:23:37.520Z,62.15
2023-03-17T02:23:49.744Z,62.60
2023-03-17T02:24:05.826Z,62.16
2023-03-17T02:24:43.629Z,62.33
2023-03-17T02:24:59.456Z,62.78
2023-03-17T02:25:13.975Z,62.87
2023-03-17T02:25:30.767Z,62.95
2023-03-17T02:25:48.553Z,62.93
2023-03-17T02:26:00.517Z,62.41
2023-03-17T02:26:12.573Z,62.51
2023-03-17T02:26:26.591Z,62.27
2023-03-17T02:26:38.749Z,62.36
2023-03-17T02:26:53.952Z,62.57
2023-03-17T02:27:25.547Z,63.10
2023-03-17T02:27:41.832Z,62.95
2023-03-17T02:27:59.933Z,62.89
2023-03-17T02:28:27.822Z,63.02
2023-03-17T02:28:40.145Z,62.94
2023-03-17T02:28:52.433Z,63.23
2023-03-17T02:29:05.969Z,63.29
2023-03-17T02:29:21.023Z,63.29
2023-03-17T02:29:37.641Z,63.49
2023-03-17T02:29:50.618Z,63.23
2023-03-17T02:30:03.806Z,63.16
2023-03-17T02:30:19.133Z,63.15
2023-03-17T02:30:33.049Z,63.52
2023-03-17T02:30:45.082Z,63.57
2023-03-17T02:30:57.764Z,63.50
2023-03-17T02:31:12.795Z,63.46
2023-03-17T02:31:26.824Z,63.87
2023-03-17T02:31:38.838Z,64.28
2023-03-17T02:31:50.828Z,63.95
2023-03-17T02:32:03.185Z,64.36
2023-03-17T02:32:17.774Z,64.37
2023-03-17T02:32:29.913Z,63.74
2023-03-17T02:32:43.360Z,63.90
2023-03-17T02:32:55.323Z,64.21
2023-03-17T02:33:07.615Z,63.90
2023-03-17T02:33:19.595Z,63.65
2023-03-17T02:33:31.962Z,63.72
2023-03-17T02:33:43.909Z,63.98
2023-03-17T02:33:56.235Z,64.10
2023-03-17T02:34:08.143Z,64.41
2023-03-17T02:34:20.434Z,63.90
2023-03-17T02:34:32.902Z,64.09
2023-03-17T02:34:47.216Z,64.61
2023-03-17T02:34:59.125Z,64.79
2023-03-17T02:35:11.500Z,64.50
2023-03-17T02:35:23.709Z,64.65
2023-03-17T02:35:35.700Z,65.00
2023-03-17T02:35:47.715Z,64.61
2023-03-17T02:35:59.758Z,64.87
2023-03-17T02:36:11.727Z,65.23
2023-03-17T02:36:23.805Z,64.82
2023-03-17T02:36:36.475Z,65.15
2023-03-17T02:36:48.480Z,64.72
2023-03-17T02:37:00.457Z,64.92
2023-03-17T02:37:13.256Z,64.42
2023-03-17T02:37:25.986Z,64.31
2023-03-17T02:37:38.066Z,64.81
2023-03-17T02:37:50.108Z,64.50
2023-03-17T02:38:02.568Z,65.11
2023-03-17T02:38:14.503Z,64.82
2023-03-17T02:38:27.044Z,65.14
2023-03-17T02:38:39.008Z,65.23
2023-03-17T02:38:51.378Z,65.14
2023-03-17T02:39:04.451Z,64.84
2023-03-17T02:39:16.401Z,64.35
2023-03-17T02:39:28.329Z,64.78
2023-03-17T02:39:40.835Z,64.90
2023-03-17T02:39:53.789Z,65.01
2023-03-17T02:40:07.641Z,65.20
2023-03-17T02:40:19.635Z,65.15
2023-03-17T02:40:32.019Z,65.18
2023-03-17T02:40:44.163Z,64.43
2023-03-17T02:40:56.400Z,64.76
2023-03-17T02:41:11.364Z,64.01
2023-03-17T02:41:24.464Z,64.56
2023-03-17T02:41:37.226Z,64.29
2023-03-17T02:41:49.172Z,64.44
2023-03-17T02:42:01.083Z,64.24
2023-03-17T02:42:14.196Z,64.11
2023-03-17T02:42:26.291Z,64.54
2023-03-17T02:42:39.457Z,64.71
2023-03-17T02:42:51.381Z,65.13
2023-03-17T02:43:05.031Z,64.97
2023-03-17T02:43:19.564Z,64.77
2023-03-17T02:43:31.520Z,64.65
2023-03-17T02:43:43.539Z,65.47
2023-03-17T02:43:55.675Z,65.07
2023-03-17T02:44:07.891Z,65.33
2023-03-17T02:44:19.907Z,64.63
2023-03-17T02:44:32.010Z,64.64
2023-03-17T02:44:43.936Z,64.91
2023-03-17T02:44:55.848Z,64.57
2023-03-17T02:45:11.443Z,64.70
2023-03-17T02:45:26.337Z,64.38
2023-03-17T02:45:38.251Z,64.42
2023-03-17T02:45:50.651Z,64.84
2023-03-17T02:46:03.426Z,64.78
2023-03-17T02:46:15.531Z,64.77
2023-03-17T02:46:27.623Z,64.65
2023-03-17T02:46:40.107Z,64.62
2023-03-17T02:46:52.564Z,64.79
2023-03-17T02:47:05.432Z,64.52
2023-03-17T02:47:17.507Z,64.63
2023-03-17T02:47:29.467Z,65.47
2023-03-17T02:47:44.402Z,65.38
2023-03-17T02:47:57.382Z,65.29
2023-03-17T02:48:09.650Z,65.32
2023-03-17T02:48:22.944Z,65.10
2023-03-17T02:48:36.544Z,65.53
2023-03-17T02:48:49.678Z,65.23
2023-03-17T02:49:02.329Z,64.68
2023-03-17T02:49:15.313Z,64.72
2023-03-17T02:49:27.912Z,65.28
2023-03-17T02:49:41.480Z,65.10
2023-03-17T02:49:54.208Z,64.67
2023-03-17T02:50:06.568Z,65.01
2023-03-17T02:50:22.407Z,64.63
2023-03-17T02:50:34.423Z,65.05
2023-03-17T02:50:46.829Z,64.60
2023-03-17T02:50:58.765Z,64.42
2023-03-17T02:51:10.848Z,64.63
2023-03-17T02:51:22.793Z,64.42
2023-03-17T02:51:34.767Z,63.79
2023-03-17T02:51:47.481Z,64.06
2023-03-17T02:51:59.413Z,63.98
2023-03-17T02:52:12.010Z,64.63
2023-03-17T02:52:24.267Z,64.24
2023-03-17T02:52:36.432Z,64.60
2023-03-17T02:52:49.295Z,64.54
2023-03-17T02:53:01.305Z,64.81
2023-03-17T02:53:13.189Z,64.57
2023-03-17T02:53:25.092Z,64.26
2023-03-17T02:53:37.116Z,64.43
2023-03-17T02:53:49.236Z,64.39
2023-03-17T02:54:01.127Z,64.35
2023-03-17T02:54:13.131Z,64.58
2023-03-17T02:54:25.550Z,64.99
2023-03-17T02:54:38.093Z,64.63
2023-03-17T02:54:50.154Z,64.46
2023-03-17T02:55:05.587Z,64.63
2023-03-17T02:55:18.964Z,64.59
2023-03-17T02:55:31.694Z,64.40
2023-03-17T02:55:43.832Z,64.18
2023-03-17T02:55:56.341Z,64.25
2023-03-17T02:56:09.817Z,63.99
2023-03-17T02:56:21.770Z,63.75
2023-03-17T02:56:33.850Z,63.63
2023-03-17T02:56:45.781Z,63.83
2023-03-17T02:56:57.756Z,63.81
2023-03-17T02:57:09.715Z,63.67
2023-03-17T02:57:22.019Z,63.56
2023-03-17T02:57:34.304Z,63.51
2023-03-17T02:57:46.535Z,63.45
2023-03-17T02:57:58.996Z,63.90
2023-03-17T02:58:13.198Z,63.67
2023-03-17T02:58:25.132Z,63.92
2023-03-17T02:58:37.134Z,63.96
2023-03-17T02:58:49.078Z,64.15
2023-03-17T02:59:00.976Z,64.14